createdAt,value
2023-03-26T00:01:55.248Z,8.08
2023-03-26T00:03:58.288Z,8.08
2023-03-26T00:06:10.663Z,7.86
2023-03-26T00:08:13.700Z,7.75
2023-03-26T00:10:16.468Z,7.87
2023-03-26T00:12:19.144Z,7.66
2023-03-26T00:14:21.793Z,7.62
2023-03-26T00:16:30.108Z,7.72
2023-03-26T00:18:35.230Z,7.75
2023-03-26T00:20:38.797Z,7.57
2023-03-26T00:22:42.082Z,7.69
2023-03-26T00:24:48.678Z,7.72
2023-03-26T00:26:53.720Z,7.68
2023-03-26T00:28:56.502Z,7.38
2023-03-26T00:31:03.894Z,7.69
2023-03-26T00:33:08.268Z,7.67
2023-03-26T00:35:11.256Z,7.61
2023-03-26T00:37:15.515Z,7.92
2023-03-26T00:39:18.085Z,7.60
2023-03-26T00:41:31.368Z,7.84
2023-03-26T00:43:36.903Z,7.78
2023-03-26T00:45:39.478Z,7.90
2023-03-26T00:47:44.565Z,7.41
2023-03-26T00:49:49.182Z,7.52
2023-03-26T00:51:51.739Z,7.66
2023-03-26T00:53:54.606Z,7.56
2023-03-26T00:56:00.601Z,7.73
2023-03-26T00:58:03.305Z,7.51
2023-03-26T01:00:10.844Z,7.38
2023-03-26T01:02:19.036Z,7.44
2023-03-26T01:04:31.205Z,7.40
2023-03-26T01:06:38.160Z,7.21
2023-03-26T01:08:48.504Z,7.66
2023-03-26T01:10:53.395Z,7.28
2023-03-26T01:12:55.975Z,7.20
2023-03-26T01:15:01.826Z,7.29
2023-03-26T01:17:07.248Z,7.36
2023-03-26T01:19:38.484Z,7.13
2023-03-26T01:21:41.302Z,7.39
2023-03-26T01:23:49.775Z,7.35
2023-03-26T01:26:10.511Z,7.29
2023-03-26T01:28:14.453Z,7.56
2023-03-26T01:30:37.777Z,7.62
2023-03-26T01:32:40.386Z,7.80
2023-03-26T01:34:42.773Z,7.77
2023-03-26T01:36:54.001Z,7.78
2023-03-26T01:39:10.293Z,7.55
2023-03-26T01:41:23.018Z,7.49
2023-03-26T01:43:39.990Z,7.79
2023-03-26T01:45:47.698Z,7.58
2023-03-26T01:47:51.261Z,7.82
2023-03-26T01:49:53.820Z,7.75
2023-03-26T01:51:58.365Z,7.71
2023-03-26T01:54:04.533Z,7.55
2023-03-26T01:56:19.530Z,7.74
2023-03-26T01:58:41.793Z,7.88
2023-03-26T02:01:13.886Z,8.02
2023-03-26T02:03:31.317Z,7.50
2023-03-26T02:05:34.175Z,8.01
2023-03-26T02:07:52.874Z,7.83
2023-03-26T02:10:00.418Z,7.89
2023-03-26T02:12:04.989Z,7.95
2023-03-26T02:14:08.817Z,7.86
2023-03-26T02:16:14.825Z,7.82
2023-03-26T02:18:17.469Z,7.72
2023-03-26T02:20:21.911Z,7.82
2023-03-26T02:22:30.171Z,8.15
2023-03-26T02:24:34.850Z,7.90
2023-03-26T02:26:38.154Z,7.82
2023-03-26T02:28:46.649Z,7.70
2023-03-26T02:30:50.949Z,7.66
2023-03-26T02:32:54.648Z,7.44
2023-03-26T02:34:58.968Z,7.52
2023-03-26T02:37:01.937Z,7.65
2023-03-26T02:39:05.116Z,7.85
2023-03-26T02:41:11.411Z,7.97
2023-03-26T02:43:29.182Z,7.72
2023-03-26T02:45:32.527Z,7.81
2023-03-26T02:47:38.059Z,7.77
2023-03-26T02:50:09.985Z,7.91
2023-03-26T02:52:26.468Z,7.80
2023-03-26T02:54:33.807Z,8.23
2023-03-26T02:56:57.065Z,8.22
2023-03-26T02:59:19.618Z,8.12
2023-03-26T03:01:27.210Z,7.90
2023-03-26T03:03:30.776Z,8.11
2023-03-26T03:05:38.280Z,8.14
2023-03-26T03:08:04.648Z,8.23
2023-03-26T03:10:14.060Z,8.13
2023-03-26T03:12:46.128Z,8.30
2023-03-26T03:14:48.819Z,8.34
2023-03-26T03:16:51.869Z,8.40
2023-03-26T03:18:57.899Z,8.15
2023-03-26T03:21:09.947Z,8.18
2023-03-26T03:23:13.430Z,8.12
2023-03-26T03:25:17.769Z,8.19
2023-03-26T03:27:23.995Z,8.29
2023-03-26T03:29:33.522Z,8.32
2023-03-26T03:31:56.467Z,8.27
2023-03-26T03:34:13.383Z,7.85
2023-03-26T03:36:23.646Z,8.23
2023-03-26T03:38:35.151Z,8.19
2023-03-26T03:40:37.775Z,8.24
2023-03-26T03:42:40.471Z,8.11
2023-03-26T03:44:44.963Z,7.86
2023-03-26T03:47:07.247Z,7.93
2023-03-26T03:49:09.686Z,8.00
2023-03-26T03:51:13.842Z,8.05
2023-03-26T03:53:26.369Z,8.09
2023-03-26T03:55:31.194Z,7.83
2023-03-26T03:57:34.934Z,8.12
2023-03-26T03:59:47.615Z,8.12
2023-03-26T04:01:51.222Z,8.16
2023-03-26T04:04:07.381Z,8.20
2023-03-26T04:06:30.456Z,8.14
2023-03-26T04:08:33.826Z,8.09
2023-03-26T04:10:36.454Z,8.00
2023-03-26T04:12:48.257Z,8.11
2023-03-26T04:14:53.213Z,7.91
2023-03-26T04:16:56.411Z,7.61
2023-03-26T04:19:02.697Z,7.81
2023-03-26T04:21:08.186Z,7.76
2023-03-26T04:23:14.551Z,7.78
2023-03-26T04:25:19.537Z,7.86
2023-03-26T04:27:37.408Z,7.63
2023-03-26T04:29:58.752Z,7.74
2023-03-26T04:32:06.873Z,7.66
2023-03-26T04:34:20.671Z,7.88
2023-03-26T04:36:35.942Z,7.42
2023-03-26T04:38:43.234Z,7.70
2023-03-26T04:40:47.641Z,7.37
2023-03-26T04:43:05.271Z,7.57
2023-03-26T04:45:35.488Z,7.69
2023-03-26T04:47:39.341Z,7.40
2023-03-26T04:49:43.100Z,7.42
2023-03-26T04:51:47.374Z,7.20
2023-03-26T04:54:21.614Z,7.38
2023-03-26T04:56:53.624Z,7.54
2023-03-26T04:59:08.425Z,7.27
2023-03-26T05:01:16.962Z,7.14
2023-03-26T05:03:21.427Z,7.12
2023-03-26T05:05:27.252Z,7.05
2023-03-26T05:07:30.571Z,7.29
2023-03-26T05:09:37.139Z,7.23
2023-03-26T05:11:58.645Z,7.34
2023-03-26T05:14:01.117Z,7.02
2023-03-26T05:16:04.482Z,7.61
2023-03-26T05:18:11.686Z,7.36
2023-03-26T05:20:27.442Z,7.48
2023-03-26T05:22:30.157Z,7.17
2023-03-26T05:24:59.260Z,7.68
2023-03-26T05:27:02.190Z,7.23
2023-03-26T05:29:05.368Z,7.76
2023-03-26T05:31:11.463Z,7.51
2023-03-26T05:33:18.619Z,7.51
2023-03-26T05:35:26.608Z,7.36
2023-03-26T05:37:31.720Z,7.75
2023-03-26T05:39:38.954Z,7.74
2023-03-26T05:42:10.671Z,7.65
2023-03-26T05:44:31.715Z,7.71
2023-03-26T05:46:39.529Z,7.93
2023-03-26T05:48:42.488Z,7.79
2023-03-26T05:50:53.462Z,7.97
2023-03-26T05:52:56.974Z,7.91
2023-03-26T05:55:37.972Z,8.07
2023-03-26T05:57:59.082Z,8.11
2023-03-26T06:00:20.074Z,7.91
2023-03-26T06:02:23.477Z,8.47
2023-03-26T06:04:46.676Z,8.02
2023-03-26T06:07:12.922Z,8.32
2023-03-26T06:09:20.034Z,8.12
2023-03-26T06:11:22.520Z,8.46
2023-03-26T06:13:25.299Z,8.31
2023-03-26T06:15:27.961Z,8.45
2023-03-26T06:17:41.727Z,8.48
2023-03-26T06:20:13.222Z,8.61
2023-03-26T06:22:18.186Z,8.62
2023-03-26T06:24:43.639Z,8.62
2023-03-26T06:27:15.597Z,8.69
2023-03-26T06:29:23.754Z,8.64
2023-03-26T06:31:53.603Z,8.44
2023-03-26T06:34:10.358Z,8.45
2023-03-26T06:36:12.693Z,8.76
2023-03-26T06:38:15.916Z,9.00
2023-03-26T06:40:18.929Z,8.89
2023-03-26T06:43:08.530Z,8.65
2023-03-26T06:45:34.114Z,9.02
2023-03-26T06:47:55.810Z,9.16
2023-03-26T06:50:15.809Z,9.18
2023-03-26T06:52:57.293Z,9.42
2023-03-26T06:55:31.984Z,9.09
2023-03-26T06:58:00.893Z,9.02
2023-03-26T07:00:39.212Z,9.67
2023-03-26T07:03:00.569Z,9.40
2023-03-26T07:05:26.795Z,9.51
2023-03-26T07:07:48.875Z,9.67
2023-03-26T07:09:57.750Z,9.80
2023-03-26T07:12:15.970Z,9.51
2023-03-26T07:14:47.622Z,9.72
2023-03-26T07:17:13.485Z,9.63
2023-03-26T07:19:42.217Z,9.77
2023-03-26T07:21:46.968Z,9.85
2023-03-26T07:24:06.461Z,9.67
2023-03-26T07:27:11.270Z,10.00
2023-03-26T07:29:39.572Z,9.91
2023-03-26T07:32:07.809Z,9.89
2023-03-26T07:35:13.863Z,10.17
2023-03-26T07:37:50.747Z,10.01
2023-03-26T07:40:26.210Z,10.26
2023-03-26T07:43:12.289Z,10.05
2023-03-26T07:45:44.406Z,10.19
2023-03-26T07:48:18.403Z,9.99
2023-03-26T07:50:37.201Z,10.26
2023-03-26T07:52:46.819Z,10.25
2023-03-26T07:55:05.779Z,10.56
2023-03-26T07:57:32.787Z,10.65
2023-03-26T08:00:18.094Z,10.67
2023-03-26T08:02:51.950Z,10.38
2023-03-26T08:08:34.812Z,10.47
2023-03-26T08:11:27.281Z,10.48
2023-03-26T08:14:01.270Z,10.49
2023-03-26T08:16:16.097Z,10.35
2023-03-26T08:18:47.136Z,10.48
2023-03-26T08:20:54.768Z,10.30
2023-03-26T08:23:17.758Z,10.49
2023-03-26T08:25:35.583Z,10.48
2023-03-26T08:27:44.281Z,10.59
2023-03-26T08:30:02.143Z,10.47
2023-03-26T08:32:09.035Z,10.71
2023-03-26T08:34:13.752Z,10.71
2023-03-26T08:36:17.042Z,10.88
2023-03-26T08:38:21.230Z,10.92
2023-03-26T08:40:58.346Z,10.75
2023-03-26T08:43:38.017Z,10.86
2023-03-26T08:46:17.061Z,11.02
2023-03-26T08:48:47.429Z,10.79
2023-03-26T08:50:59.411Z,10.86
2023-03-26T08:53:20.967Z,11.08
2023-03-26T08:55:52.253Z,10.74
2023-03-26T08:58:32.254Z,11.17
2023-03-26T09:00:52.124Z,10.90
2023-03-26T09:03:13.268Z,11.30
2023-03-26T09:05:15.716Z,11.37
2023-03-26T09:07:47.546Z,11.47
2023-03-26T09:10:02.418Z,11.44
2023-03-26T09:12:41.726Z,11.20
2023-03-26T09:15:03.851Z,11.37
2023-03-26T09:17:26.290Z,11.33
2023-03-26T09:19:42.888Z,11.18
2023-03-26T09:21:57.956Z,11.46
2023-03-26T09:24:28.634Z,11.69
2023-03-26T09:26:51.505Z,11.95
2023-03-26T09:29:03.967Z,12.06
2023-03-26T09:31:28.167Z,12.34
2023-03-26T09:33:54.334Z,12.43
2023-03-26T09:36:11.537Z,12.45
2023-03-26T09:38:23.736Z,12.45
2023-03-26T09:40:46.214Z,12.42
2023-03-26T09:43:10.690Z,12.54
2023-03-26T09:46:10.400Z,12.50
2023-03-26T09:48:28.263Z,12.54
2023-03-26T09:50:58.044Z,12.50
2023-03-26T09:53:34.737Z,12.58
2023-03-26T09:55:43.388Z,12.60
2023-03-26T09:58:04.982Z,12.68
2023-03-26T10:00:28.898Z,12.57
2023-03-26T10:02:50.690Z,12.78
2023-03-26T10:04:56.726Z,12.74
2023-03-26T10:07:26.298Z,12.65
2023-03-26T10:09:52.024Z,12.41
2023-03-26T10:12:16.459Z,12.17
2023-03-26T10:14:23.356Z,11.88
2023-03-26T10:16:44.273Z,11.72
2023-03-26T10:18:52.464Z,11.38
2023-03-26T10:21:07.713Z,11.66
2023-03-26T10:23:16.599Z,11.67
2023-03-26T10:25:26.770Z,11.70
2023-03-26T10:28:16.617Z,11.73
2023-03-26T10:30:36.868Z,11.78
2023-03-26T10:33:03.053Z,11.87
2023-03-26T10:35:31.271Z,11.96
2023-03-26T10:37:54.774Z,11.91
2023-03-26T10:40:28.576Z,11.94
2023-03-26T10:42:49.883Z,11.98
2023-03-26T10:45:08.460Z,11.96
2023-03-26T10:47:28.970Z,11.93
2023-03-26T10:49:55.745Z,11.98
2023-03-26T10:52:21.131Z,12.01
2023-03-26T10:54:50.897Z,12.26
2023-03-26T10:56:56.922Z,12.59
2023-03-26T10:59:06.203Z,12.91
2023-03-26T11:01:22.902Z,12.64
2023-03-26T11:03:44.638Z,12.94
2023-03-26T11:05:50.752Z,13.08
2023-03-26T11:08:07.394Z,12.93
2023-03-26T11:10:18.002Z,13.21
2023-03-26T11:12:41.782Z,13.12
2023-03-26T11:15:11.052Z,13.27
2023-03-26T11:17:41.546Z,13.37
2023-03-26T11:19:57.094Z,13.34
2023-03-26T11:22:03.056Z,13.52
2023-03-26T11:24:28.384Z,13.63
2023-03-26T11:27:17.499Z,13.70
2023-03-26T11:29:46.782Z,13.73
2023-03-26T11:32:00.626Z,13.71
2023-03-26T11:34:16.883Z,13.93
2023-03-26T11:36:43.328Z,13.90
2023-03-26T11:38:49.737Z,14.35
2023-03-26T11:40:59.592Z,14.21
2023-03-26T11:43:30.365Z,14.26
2023-03-26T11:45:38.958Z,14.03
2023-03-26T11:47:48.469Z,13.92
2023-03-26T11:49:55.861Z,13.64
2023-03-26T11:51:59.540Z,13.60
2023-03-26T11:54:04.672Z,13.55
2023-03-26T11:56:18.721Z,13.73
2023-03-26T11:58:31.666Z,13.34
2023-03-26T12:00:34.920Z,13.33
2023-03-26T12:02:42.253Z,13.31
2023-03-26T12:04:51.378Z,13.19
2023-03-26T12:07:34.076Z,13.02
2023-03-26T12:09:37.022Z,12.91
2023-03-26T12:11:39.907Z,12.90
2023-03-26T12:13:53.864Z,13.03
2023-03-26T12:16:19.399Z,13.00
2023-03-26T12:18:27.162Z,12.93
2023-03-26T12:20:33.980Z,13.15
2023-03-26T12:22:38.189Z,13.06
2023-03-26T12:24:41.340Z,12.82
2023-03-26T12:26:49.630Z,12.81
2023-03-26T12:28:52.751Z,12.84
2023-03-26T12:31:08.085Z,12.91
2023-03-26T12:33:30.166Z,12.57
2023-03-26T12:35:35.861Z,12.93
2023-03-26T12:37:42.798Z,13.03
2023-03-26T12:40:09.886Z,13.00
2023-03-26T12:44:51.044Z,12.90
2023-03-26T12:44:58.848Z,12.59
2023-03-26T12:47:57.927Z,12.46
2023-03-26T12:49:43.336Z,12.15
2023-03-26T12:51:53.641Z,12.29
2023-03-26T12:54:17.631Z,12.40
2023-03-26T12:59:47.206Z,12.53
2023-03-26T13:02:08.187Z,12.65
2023-03-26T13:02:24.103Z,12.24
2023-03-26T13:04:34.486Z,12.80
2023-03-26T13:07:00.653Z,12.85
2023-03-26T13:09:25.739Z,13.19
2023-03-26T13:11:54.219Z,13.56
2023-03-26T13:14:15.252Z,14.01
2023-03-26T13:16:30.216Z,14.01
2023-03-26T13:18:56.019Z,14.14
2023-03-26T13:21:11.805Z,14.14
2023-03-26T13:23:38.912Z,14.23
2023-03-26T13:26:00.014Z,14.11
2023-03-26T13:28:17.657Z,13.85
2023-03-26T13:30:37.420Z,13.84
2023-03-26T13:33:12.786Z,14.16
2023-03-26T13:35:50.377Z,14.28
2023-03-26T13:38:02.546Z,14.40
2023-03-26T13:40:25.250Z,14.47
2023-03-26T13:42:59.601Z,14.46
2023-03-26T13:45:10.352Z,14.46
2023-03-26T13:47:49.181Z,14.45
2023-03-26T13:49:59.138Z,14.12
2023-03-26T13:52:23.358Z,14.47
2023-03-26T13:54:34.937Z,14.73
2023-03-26T13:56:43.962Z,14.54
2023-03-26T13:59:02.682Z,14.78
2023-03-26T14:01:17.028Z,14.68
2023-03-26T14:03:43.347Z,14.72
2023-03-26T14:05:51.292Z,14.77
2023-03-26T14:07:58.753Z,15.03
2023-03-26T14:10:10.492Z,15.08
2023-03-26T14:12:49.389Z,14.91
2023-03-26T14:14:54.408Z,15.08
2023-03-26T14:17:03.392Z,15.13
2023-03-26T14:19:27.898Z,15.15
2023-03-26T14:21:34.360Z,15.09
2023-03-26T14:24:09.668Z,15.11
2023-03-26T14:26:30.523Z,15.21
2023-03-26T14:28:41.935Z,15.18
2023-03-26T14:30:56.851Z,15.11
2023-03-26T14:33:27.486Z,14.85
2023-03-26T14:35:43.693Z,15.20
2023-03-26T14:38:04.518Z,15.25
2023-03-26T14:40:26.212Z,15.28
2023-03-26T14:42:42.686Z,15.36
2023-03-26T14:45:17.512Z,15.23
2023-03-26T14:47:22.827Z,15.08
2023-03-26T14:49:46.311Z,15.25
2023-03-26T14:52:21.490Z,15.15
2023-03-26T14:54:28.688Z,15.08
2023-03-26T14:56:34.007Z,15.26
2023-03-26T14:58:57.693Z,15.21
2023-03-26T15:01:28.678Z,14.79
2023-03-26T15:04:03.314Z,14.59
2023-03-26T15:06:39.634Z,14.50
2023-03-26T15:09:13.542Z,14.16
2023-03-26T15:11:27.578Z,14.40
2023-03-26T15:13:42.568Z,14.26
2023-03-26T15:16:06.728Z,14.34
2023-03-26T15:18:25.923Z,14.11
2023-03-26T15:20:56.158Z,14.34
2023-03-26T15:23:26.517Z,14.35
2023-03-26T15:25:41.272Z,14.29
2023-03-26T15:28:22.849Z,14.31
2023-03-26T15:31:07.097Z,14.17
2023-03-26T15:33:35.304Z,14.07
2023-03-26T15:35:43.927Z,13.76
2023-03-26T15:38:24.807Z,13.77
2023-03-26T15:40:48.250Z,13.63
2023-03-26T15:43:11.658Z,13.84
2023-03-26T15:45:41.742Z,13.67
2023-03-26T15:48:15.621Z,13.94
2023-03-26T15:51:46.206Z,14.00
2023-03-26T15:53:59.676Z,14.01
2023-03-26T15:56:18.234Z,13.73
2023-03-26T15:58:26.921Z,13.81
2023-03-26T16:00:34.793Z,13.57
2023-03-26T16:02:44.079Z,13.45
2023-03-26T16:05:17.144Z,13.28
2023-03-26T16:07:53.473Z,13.10
2023-03-26T16:10:22.931Z,12.98
2023-03-26T16:13:00.167Z,13.01
2023-03-26T16:15:36.268Z,12.96
2023-03-26T16:18:19.867Z,12.94
2023-03-26T16:20:33.468Z,12.73
2023-03-26T16:22:58.351Z,12.72
2023-03-26T16:25:29.220Z,12.95
2023-03-26T16:27:34.799Z,12.76
2023-03-26T16:30:08.472Z,12.80
2023-03-26T16:32:29.624Z,12.57
2023-03-26T16:35:01.034Z,12.59
2023-03-26T16:37:09.864Z,12.54
2023-03-26T16:39:19.966Z,12.60
2023-03-26T16:41:31.370Z,12.64
2023-03-26T16:43:52.002Z,12.24
2023-03-26T16:46:14.266Z,12.18
2023-03-26T16:48:36.485Z,12.07
2023-03-26T16:50:57.354Z,11.98
2023-03-26T16:53:34.999Z,12.04
2023-03-26T16:55:53.810Z,11.77
2023-03-26T16:58:14.920Z,11.94
2023-03-26T17:00:26.560Z,11.85
2023-03-26T17:02:42.018Z,11.82
2023-03-26T17:04:49.127Z,11.62
2023-03-26T17:07:30.595Z,11.32
2023-03-26T17:10:20.457Z,11.71
2023-03-26T17:12:56.161Z,11.73
2023-03-26T17:15:19.517Z,11.66
2023-03-26T17:17:53.000Z,11.59
2023-03-26T17:20:35.298Z,11.54
2023-03-26T17:22:50.679Z,11.51
2023-03-26T17:25:21.808Z,11.31
2023-03-26T17:28:09.438Z,11.41
2023-03-26T17:30:44.874Z,11.35
2023-03-26T17:33:29.149Z,11.28
2023-03-26T17:35:38.281Z,11.17
2023-03-26T17:37:48.120Z,11.22
2023-03-26T17:39:51.536Z,11.19
2023-03-26T17:42:03.756Z,11.16
2023-03-26T17:44:37.132Z,11.18
2023-03-26T17:46:45.987Z,10.90
2023-03-26T17:49:19.747Z,10.81
2023-03-26T17:51:38.872Z,11.10
2023-03-26T17:53:43.034Z,11.02
2023-03-26T17:55:51.194Z,10.76
2023-03-26T17:57:59.445Z,10.92
2023-03-26T18:00:07.958Z,10.62
2023-03-26T18:02:21.286Z,10.80
2023-03-26T18:04:40.386Z,10.89
2023-03-26T18:07:20.097Z,10.85
2023-03-26T18:09:29.145Z,10.81
2023-03-26T18:11:59.105Z,10.69
2023-03-26T18:14:27.466Z,10.79
2023-03-26T18:16:33.757Z,10.77
2023-03-26T18:18:46.551Z,10.74
2023-03-26T18:20:51.428Z,10.62
2023-03-26T18:22:54.943Z,10.56
2023-03-26T18:25:01.353Z,10.17
2023-03-26T18:27:13.371Z,10.45
2023-03-26T18:29:31.515Z,10.44
2023-03-26T18:31:42.234Z,10.58
2023-03-26T18:33:47.964Z,10.19
2023-03-26T18:35:56.846Z,10.01
2023-03-26T18:38:00.449Z,10.35
2023-03-26T18:40:16.117Z,10.53
2023-03-26T18:42:25.205Z,10.25
2023-03-26T18:44:36.492Z,10.44
2023-03-26T18:46:39.226Z,10.06
2023-03-26T18:48:44.848Z,10.14
2023-03-26T18:50:53.795Z,10.40
2023-03-26T18:53:00.638Z,9.91
2023-03-26T18:55:04.212Z,10.13
2023-03-26T18:57:15.990Z,10.34
2023-03-26T18:59:35.497Z,9.85
2023-03-26T19:01:47.304Z,10.07
2023-03-26T19:03:50.821Z,10.14
2023-03-26T19:05:57.050Z,10.27
2023-03-26T19:08:04.217Z,10.32
2023-03-26T19:10:08.466Z,9.78
2023-03-26T19:12:43.238Z,10.18
2023-03-26T19:15:09.012Z,9.97
2023-03-26T19:17:12.315Z,9.93
2023-03-26T19:19:23.470Z,10.20
2023-03-26T19:21:26.689Z,9.63
2023-03-26T19:23:42.007Z,10.14
2023-03-26T19:25:55.162Z,10.09
2023-03-26T19:27:59.770Z,9.97
2023-03-26T19:30:03.950Z,9.95
2023-03-26T19:32:18.674Z,9.65
2023-03-26T19:34:39.212Z,10.07
2023-03-26T19:37:02.268Z,10.09
2023-03-26T19:39:14.660Z,9.95
2023-03-26T19:41:42.781Z,9.89
2023-03-26T19:43:53.407Z,9.96
2023-03-26T19:46:02.381Z,9.82
2023-03-26T19:48:15.562Z,9.74
2023-03-26T19:50:23.840Z,9.84
2023-03-26T19:52:36.535Z,9.71
2023-03-26T19:55:03.099Z,9.46
2023-03-26T19:57:06.034Z,9.53
2023-03-26T19:59:09.169Z,9.47
2023-03-26T20:01:32.530Z,9.83
2023-03-26T20:03:43.125Z,9.84
2023-03-26T20:05:46.805Z,9.74
2023-03-26T20:07:53.716Z,9.29
2023-03-26T20:09:57.113Z,9.60
2023-03-26T20:12:01.314Z,9.54
2023-03-26T20:14:18.463Z,9.62
2023-03-26T20:16:27.530Z,9.30
2023-03-26T20:18:30.428Z,9.69
2023-03-26T20:20:34.838Z,9.37
2023-03-26T20:22:38.032Z,9.50
2023-03-26T20:24:45.301Z,9.49
2023-03-26T20:26:48.831Z,9.50
2023-03-26T20:28:53.376Z,9.52
2023-03-26T20:30:57.356Z,9.62
2023-03-26T20:33:12.143Z,9.34
2023-03-26T20:35:20.899Z,9.42
2023-03-26T20:37:40.249Z,9.58
2023-03-26T20:39:46.677Z,9.58
2023-03-26T20:41:50.797Z,9.24
2023-03-26T20:43:54.032Z,9.38
2023-03-26T20:45:59.426Z,9.20
2023-03-26T20:48:03.184Z,9.31
2023-03-26T20:50:07.034Z,9.46
2023-03-26T20:52:13.867Z,9.51
2023-03-26T20:54:18.473Z,9.52
2023-03-26T20:56:23.818Z,9.58
2023-03-26T20:58:31.507Z,9.28
2023-03-26T21:00:35.084Z,9.37
2023-03-26T21:02:39.237Z,9.39
2023-03-26T21:04:43.574Z,9.52
2023-03-26T21:06:46.366Z,8.93
2023-03-26T21:08:49.322Z,9.33
2023-03-26T21:10:52.212Z,9.47
2023-03-26T21:13:06.402Z,9.50
2023-03-26T21:15:22.482Z,9.32
2023-03-26T21:17:27.455Z,9.39
2023-03-26T21:19:30.743Z,9.16
2023-03-26T21:21:46.539Z,9.44
2023-03-26T21:24:19.083Z,9.16
2023-03-26T21:26:41.628Z,9.46
2023-03-26T21:28:48.208Z,9.32
2023-03-26T21:30:51.444Z,9.07
2023-03-26T21:32:54.885Z,9.30
2023-03-26T21:34:59.506Z,9.17
2023-03-26T21:37:05.168Z,9.38
2023-03-26T21:39:08.343Z,9.22
2023-03-26T21:41:31.666Z,9.41
2023-03-26T21:43:34.516Z,9.26
2023-03-26T21:45:39.069Z,9.13
2023-03-26T21:47:43.324Z,9.14
2023-03-26T21:49:46.247Z,9.06
2023-03-26T21:51:49.269Z,9.27
2023-03-26T21:53:53.161Z,8.70
2023-03-26T21:56:26.108Z,9.14
2023-03-26T21:59:02.842Z,9.01
2023-03-26T22:01:08.645Z,8.76
2023-03-26T22:03:40.425Z,8.61
2023-03-26T22:06:07.539Z,8.78
2023-03-26T22:08:30.876Z,8.72
2023-03-26T22:10:33.614Z,8.72
2023-03-26T22:12:37.519Z,8.89
2023-03-26T22:14:41.423Z,8.90
2023-03-26T22:16:44.444Z,8.73
2023-03-26T22:18:48.897Z,8.93
2023-03-26T22:20:52.105Z,8.87
2023-03-26T22:22:55.423Z,8.50
2023-03-26T22:24:58.193Z,9.05
2023-03-26T22:27:04.032Z,9.00
2023-03-26T22:29:06.934Z,8.79
2023-03-26T22:31:10.048Z,8.75
2023-03-26T22:33:13.098Z,8.90
2023-03-26T22:35:16.407Z,8.47
2023-03-26T22:37:20.442Z,8.76
2023-03-26T22:39:23.338Z,8.76
2023-03-26T22:41:26.224Z,8.78
2023-03-26T22:43:28.978Z,8.53
2023-03-26T22:45:31.710Z,8.89
2023-03-26T22:47:35.765Z,8.73
2023-03-26T22:49:40.521Z,8.67
2023-03-26T22:51:46.290Z,8.67
2023-03-26T22:53:49.740Z,8.70
2023-03-26T22:55:53.040Z,8.92
2023-03-26T22:57:55.874Z,8.97
2023-03-26T23:00:13.047Z,8.85
2023-03-26T23:02:17.680Z,8.76
2023-03-26T23:04:30.904Z,8.47
2023-03-26T23:06:34.852Z,8.80
2023-03-26T23:08:39.290Z,8.58
2023-03-26T23:10:43.060Z,8.96
2023-03-26T23:12:45.874Z,8.51
2023-03-26T23:14:52.589Z,8.70
2023-03-26T23:16:55.875Z,8.74
2023-03-26T23:19:00.442Z,9.01
2023-03-26T23:21:04.252Z,8.91
2023-03-26T23:23:14.915Z,8.82
2023-03-26T23:25:19.301Z,8.93
2023-03-26T23:27:22.792Z,8.78
2023-03-26T23:29:25.555Z,8.77
2023-03-26T23:31:29.095Z,8.87
2023-03-26T23:33:35.606Z,8.89
2023-03-26T23:35:38.269Z,8.74
2023-03-26T23:37:42.747Z,8.98
2023-03-26T23:39:47.104Z,8.84
2023-03-26T23:41:52.331Z,8.75
2023-03-26T23:44:40.305Z,8.68
2023-03-26T23:47:06.103Z,8.55
2023-03-26T23:49:36.048Z,8.80
2023-03-26T23:51:43.910Z,8.64
2023-03-26T23:54:52.585Z,8.76
2023-03-26T23:57:11.036Z,8.21
2023-03-26T23:59:19.894Z,8.29
